Time;durP1;ratioP1;P1;durP2;ratioP2;P2;SDS_P1;SDS_P2;PMS_P1;PMS_P2;Temp;Humidity;BMP_temperature;BMP_pressure;BME280_temperature;BME280_humidity;BME280_pressure;Samples;Min_cycle;Max_cycle;Signal;HPM_P1;HPM_P2
2023/08/15 00:01:14;;;;;;;1999.90;999.90;;;20.50;99.90;;;;;;5032036;28;20026;-74
2023/08/15 00:03:39;;;;;;;1999.90;999.90;;;20.50;99.90;;;;;;5032477;28;20045;-74
2023/08/15 00:06:05;;;;;;;1999.90;999.90;;;20.50;99.90;;;;;;5032190;28;20037;-74
2023/08/15 00:08:31;;;;;;;1999.90;999.90;;;20.50;99.90;;;;;;5032678;28;20038;-74
2023/08/15 00:10:56;;;;;;;1999.90;999.90;;;20.40;99.90;;;;;;5031834;28;20502;-74
2023/08/15 00:13:22;;;;;;;1999.90;999.90;;;20.40;99.90;;;;;;5032223;28;20407;-73
2023/08/15 00:15:47;;;;;;;1999.90;999.90;;;20.40;99.90;;;;;;5032032;28;20084;-73
2023/08/15 00:18:13;;;;;;;1999.90;999.90;;;20.40;99.90;;;;;;5032350;28;20045;-73
2023/08/15 00:20:38;;;;;;;1999.90;999.90;;;20.30;99.90;;;;;;5031914;28;20037;-74
2023/08/15 00:23:04;;;;;;;1999.90;999.90;;;20.30;99.90;;;;;;5031758;28;20886;-73
2023/08/15 00:25:30;;;;;;;1999.90;999.90;;;20.30;99.90;;;;;;5030665;28;20041;-74
2023/08/15 00:27:56;;;;;;;1999.90;999.90;;;20.30;99.90;;;;;;5031681;28;20044;-74
2023/08/15 00:30:21;;;;;;;1999.90;999.90;;;20.30;99.90;;;;;;5030464;28;20053;-74
2023/08/15 00:32:47;;;;;;;1999.90;999.90;;;20.30;99.90;;;;;;5030667;28;20069;-74
2023/08/15 00:35:12;;;;;;;1999.90;999.90;;;20.30;99.90;;;;;;5030077;28;20046;-74
2023/08/15 00:37:38;;;;;;;1999.90;999.90;;;20.20;99.90;;;;;;5030537;28;20054;-74
2023/08/15 00:40:04;;;;;;;1999.90;999.90;;;20.20;99.90;;;;;;5031957;28;20034;-74
2023/08/15 00:42:30;;;;;;;1999.90;999.90;;;20.20;99.90;;;;;;5031765;28;20038;-74
2023/08/15 00:44:56;;;;;;;1999.90;999.90;;;20.20;99.90;;;;;;5031463;28;20372;-74
2023/08/15 00:47:22;;;;;;;1999.90;999.90;;;20.20;99.90;;;;;;5031694;28;20513;-74
2023/08/15 00:49:49;;;;;;;1999.90;999.90;;;20.20;99.90;;;;;;5029876;28;21009;-74
2023/08/15 00:52:16;;;;;;;1999.90;999.90;;;20.20;99.90;;;;;;5031716;28;20069;-74
2023/08/15 00:54:46;;;;;;;1999.90;999.90;;;20.10;99.90;;;;;;5030066;28;20044;-74
2023/08/15 00:57:11;;;;;;;1999.90;999.90;;;20.10;99.90;;;;;;5031599;28;20083;-74
2023/08/15 00:59:37;;;;;;;1999.90;999.90;;;20.00;99.90;;;;;;5031305;28;20090;-74
2023/08/15 01:02:03;;;;;;;1999.90;999.90;;;20.00;99.90;;;;;;5031683;28;20038;-74
2023/08/15 01:04:31;;;;;;;1999.90;999.90;;;19.90;99.90;;;;;;5031070;28;20038;-74
2023/08/15 01:06:57;;;;;;;1999.90;999.90;;;19.90;99.90;;;;;;5031344;28;20469;-74
2023/08/15 01:09:23;;;;;;;1999.90;999.90;;;19.90;99.90;;;;;;5031020;28;20054;-74
2023/08/15 01:12:05;;;;;;;1999.90;999.90;;;19.80;99.90;;;;;;5031175;28;20108;-74
2023/08/15 01:14:38;;;;;;;1999.90;999.90;;;19.70;99.90;;;;;;5031057;28;20066;-74
2023/08/15 01:17:06;;;;;;;1999.90;999.90;;;19.80;99.90;;;;;;5031375;28;20034;-74
2023/08/15 01:19:40;;;;;;;1999.90;999.90;;;19.60;99.90;;;;;;5031106;28;20462;-74
2023/08/15 01:22:15;;;;;;;1999.90;999.90;;;19.60;99.90;;;;;;5031347;28;20759;-73
2023/08/15 01:24:42;;;;;;;1999.90;999.90;;;19.60;99.90;;;;;;5030764;28;20041;-74
2023/08/15 01:27:07;;;;;;;1999.90;999.90;;;19.70;99.90;;;;;;5031229;28;20876;-73
2023/08/15 01:29:33;;;;;;;1999.90;999.90;;;19.50;99.90;;;;;;5030988;28;20061;-74
2023/08/15 01:32:21;;;;;;;1999.90;999.90;;;19.50;99.90;;;;;;5029490;28;20054;-74
2023/08/15 01:34:55;;;;;;;1999.90;999.90;;;19.50;99.90;;;;;;5030976;28;20042;-74
2023/08/15 01:37:27;;;;;;;1999.90;999.90;;;19.40;99.90;;;;;;5032759;28;20040;-74
2023/08/15 01:39:56;;;;;;;1999.90;999.90;;;19.40;99.90;;;;;;5032471;28;20030;-73
2023/08/15 01:42:23;;;;;;;1999.90;999.90;;;19.40;99.90;;;;;;5034098;28;20026;-74
2023/08/15 01:44:50;;;;;;;1999.90;999.90;;;19.30;99.90;;;;;;5033774;28;20034;-74
2023/08/15 01:47:15;;;;;;;1999.90;999.90;;;19.40;99.90;;;;;;5033158;28;20483;-74
2023/08/15 01:49:41;;;;;;;1999.90;999.90;;;19.30;99.90;;;;;;5033834;28;20037;-74
2023/08/15 01:52:06;;;;;;;1999.90;999.90;;;19.30;99.90;;;;;;5034114;28;20058;-74
2023/08/15 01:54:32;;;;;;;1999.90;999.90;;;19.20;99.90;;;;;;5032131;28;20077;-74
2023/08/15 01:56:58;;;;;;;1999.90;999.90;;;19.20;99.90;;;;;;5033724;28;20109;-73
2023/08/15 01:59:23;;;;;;;1999.90;999.90;;;19.20;99.90;;;;;;5033435;28;20038;-74
2023/08/15 02:01:49;;;;;;;1999.90;999.90;;;19.20;99.90;;;;;;5033276;28;20026;-74
2023/08/15 02:04:14;;;;;;;1999.90;999.90;;;19.20;99.90;;;;;;5033596;28;20042;-74
2023/08/15 02:06:40;;;;;;;1999.90;999.90;;;19.10;99.90;;;;;;5033825;28;20034;-73
2023/08/15 02:09:05;;;;;;;1999.90;999.90;;;19.10;99.90;;;;;;5033529;28;20034;-73
2023/08/15 02:11:31;;;;;;;1999.90;999.90;;;19.10;99.90;;;;;;5033384;28;20034;-73
2023/08/15 02:13:58;;;;;;;1999.90;999.90;;;19.10;99.90;;;;;;5033471;28;20054;-74
2023/08/15 02:16:23;;;;;;;1999.90;999.90;;;19.10;99.90;;;;;;5033579;28;20041;-74
2023/08/15 02:18:49;;;;;;;1999.90;999.90;;;19.10;99.90;;;;;;5033705;28;20044;-73
2023/08/15 02:21:14;;;;;;;1999.90;999.90;;;19.10;99.90;;;;;;5033524;28;20037;-73
2023/08/15 02:23:40;;;;;;;1999.90;999.90;;;19.00;99.90;;;;;;5033143;28;20034;-73
2023/08/15 02:26:05;;;;;;;1999.90;999.90;;;19.00;99.90;;;;;;5033116;28;20487;-74
2023/08/15 02:28:31;;;;;;;1999.90;999.90;;;19.10;99.90;;;;;;5033659;28;20150;-74
2023/08/15 02:30:57;;;;;;;1999.90;999.90;;;19.10;99.90;;;;;;5033413;28;20472;-74
2023/08/15 02:33:23;;;;;;;1999.90;999.90;;;19.00;99.90;;;;;;5033266;28;20570;-74
2023/08/15 02:35:51;;;;;;;1999.90;999.90;;;19.00;99.90;;;;;;5033247;28;20042;-74
2023/08/15 02:38:17;;;;;;;1999.90;999.90;;;19.00;99.90;;;;;;5031879;28;20681;-74
2023/08/15 02:40:42;;;;;;;1999.90;999.90;;;18.90;99.90;;;;;;5033247;28;20113;-73
2023/08/15 02:43:08;;;;;;;1999.90;999.90;;;19.00;99.90;;;;;;5031877;28;20106;-74
2023/08/15 02:45:34;;;;;;;1999.90;999.90;;;19.10;99.90;;;;;;5032942;28;20133;-74
2023/08/15 02:47:59;;;;;;;1999.90;999.90;;;19.00;99.90;;;;;;5032419;28;20471;-74
2023/08/15 02:50:25;;;;;;;1999.90;999.90;;;19.00;99.90;;;;;;5032904;28;20037;-73
2023/08/15 02:52:51;;;;;;;1999.90;999.90;;;19.10;99.90;;;;;;5033271;28;20034;-74
2023/08/15 02:55:17;;;;;;;1999.90;999.90;;;19.10;99.90;;;;;;5032714;28;20050;-74
2023/08/15 02:57:42;;;;;;;1999.90;999.90;;;19.10;99.90;;;;;;5031692;28;20037;-74
2023/08/15 03:00:09;;;;;;;1999.90;999.90;;;19.20;99.90;;;;;;5032945;28;20030;-74
2023/08/15 03:02:35;;;;;;;1999.90;999.90;;;19.20;99.90;;;;;;5032889;28;20232;-73
2023/08/15 03:05:00;;;;;;;1999.90;999.90;;;19.30;99.90;;;;;;5032630;28;20171;-74
2023/08/15 03:07:26;;;;;;;1999.90;999.90;;;19.30;99.90;;;;;;5033073;28;20026;-74
2023/08/15 03:09:51;;;;;;;1999.90;999.90;;;19.40;99.90;;;;;;5032368;28;20533;-74
2023/08/15 03:12:17;;;;;;;1999.90;999.90;;;19.40;99.90;;;;;;5032830;28;20042;-74
2023/08/15 03:14:43;;;;;;;1999.90;999.90;;;19.40;99.90;;;;;;5032284;28;20042;-74
2023/08/15 03:17:08;;;;;;;1999.90;999.90;;;19.50;99.90;;;;;;5032805;28;20034;-74
2023/08/15 03:19:34;;;;;;;1999.90;999.90;;;19.40;99.90;;;;;;5031070;28;20476;-74
2023/08/15 03:22:00;;;;;;;1999.90;999.90;;;19.60;99.90;;;;;;5032411;28;20037;-74
2023/08/15 03:24:30;;;;;;;1999.90;999.90;;;19.50;99.90;;;;;;5032324;28;20056;-74
2023/08/15 03:26:55;;;;;;;1999.90;999.90;;;19.60;99.90;;;;;;5032399;28;20037;-74
2023/08/15 03:29:21;;;;;;;1999.90;999.90;;;19.50;99.90;;;;;;5032134;28;20044;-74
2023/08/15 03:31:46;;;;;;;1999.90;999.90;;;19.70;99.90;;;;;;5032054;28;20057;-74
2023/08/15 03:34:12;;;;;;;1999.90;999.90;;;19.60;99.90;;;;;;5032129;28;20041;-74
2023/08/15 03:36:40;;;;;;;1999.90;999.90;;;19.60;99.90;;;;;;5032572;28;20057;-74
2023/08/15 03:39:06;;;;;;;1999.90;999.90;;;19.50;99.90;;;;;;5031940;28;20110;-74
2023/08/15 03:41:32;;;;;;;1999.90;999.90;;;19.60;99.90;;;;;;5032475;28;20077;-74
2023/08/15 03:43:57;;;;;;;1999.90;999.90;;;19.60;99.90;;;;;;5032221;28;20034;-74
2023/08/15 03:46:23;;;;;;;1999.90;999.90;;;19.60;99.90;;;;;;5032397;28;20034;-74
2023/08/15 03:48:49;;;;;;;1999.90;999.90;;;19.60;99.90;;;;;;5032383;28;20036;-74
2023/08/15 03:51:14;;;;;;;1999.90;999.90;;;19.60;99.90;;;;;;5030618;28;20040;-74
2023/08/15 03:53:40;;;;;;;1999.90;999.90;;;19.60;99.90;;;;;;5030424;28;20057;-74
2023/08/15 03:56:05;;;;;;;1999.90;999.90;;;19.60;99.90;;;;;;5032094;28;20030;-74
2023/08/15 03:58:31;;;;;;;1999.90;999.90;;;19.70;99.90;;;;;;5031705;28;20118;-74
2023/08/15 04:00:56;;;;;;;1999.90;999.90;;;19.80;99.90;;;;;;5031628;28;20398;-74
2023/08/15 04:03:22;;;;;;;1999.90;999.90;;;19.70;99.90;;;;;;5032109;28;20026;-74
2023/08/15 04:05:48;;;;;;;1999.90;999.90;;;19.70;99.90;;;;;;5031645;28;20041;-74
2023/08/15 04:08:15;;;;;;;1999.90;999.90;;;19.70;99.90;;;;;;5032201;28;20038;-74
2023/08/15 04:10:41;;;;;;;1999.90;999.90;;;19.70;99.90;;;;;;5029681;28;20038;-74
2023/08/15 04:13:10;;;;;;;1999.90;999.90;;;19.70;99.90;;;;;;5031944;28;20487;-74
2023/08/15 04:15:36;;;;;;;1999.90;999.90;;;19.70;99.90;;;;;;5030231;28;20120;-74
2023/08/15 04:18:04;;;;;;;1999.90;999.90;;;19.70;99.90;;;;;;5032053;28;20029;-74
2023/08/15 04:20:30;;;;;;;1999.90;999.90;;;19.70;99.90;;;;;;5029670;28;20042;-74
2023/08/15 04:22:55;;;;;;;1999.90;999.90;;;19.70;99.90;;;;;;5031991;28;20048;-74
2023/08/15 04:25:21;;;;;;;1999.90;999.90;;;19.80;99.90;;;;;;5031469;28;20037;-74
2023/08/15 04:27:46;;;;;;;1999.90;999.90;;;19.70;99.90;;;;;;5031372;28;20376;-74
2023/08/15 04:30:12;;;;;;;1999.90;999.90;;;19.70;99.90;;;;;;5031497;28;20553;-74
2023/08/15 04:32:37;;;;;;;1999.90;999.90;;;19.70;99.90;;;;;;5030068;28;20034;-74
2023/08/15 04:35:03;;;;;;;1999.90;999.90;;;19.80;99.90;;;;;;5031497;28;20133;-74
2023/08/15 04:37:29;;;;;;;1999.90;999.90;;;19.80;99.90;;;;;;5031710;28;20058;-74
2023/08/15 04:39:55;;;;;;;1999.90;999.90;;;19.90;99.90;;;;;;5031471;28;20550;-74
2023/08/15 04:42:20;;;;;;;1999.90;999.90;;;19.90;99.90;;;;;;5031482;28;20490;-74
2023/08/15 04:44:46;;;;;;;1999.90;999.90;;;20.00;99.90;;;;;;5027557;28;20049;-75
2023/08/15 04:47:11;;;;;;;1999.90;999.90;;;20.00;99.90;;;;;;5016460;28;20038;-74
2023/08/15 04:49:38;;;;;;;1999.90;999.90;;;20.00;99.90;;;;;;5011584;28;20038;-74
2023/08/15 04:52:04;;;;;;;1999.90;999.90;;;20.10;99.90;;;;;;5011344;28;20034;-74
2023/08/15 04:54:30;;;;;;;1999.90;999.90;;;20.10;99.90;;;;;;5011284;28;20045;-74
2023/08/15 04:56:55;;;;;;;1999.90;999.90;;;20.10;99.90;;;;;;5013157;28;20122;-74
2023/08/15 04:59:21;;;;;;;1999.90;999.90;;;20.20;99.90;;;;;;5009650;28;20400;-74
2023/08/15 05:01:46;;;;;;;1999.90;999.90;;;20.20;99.90;;;;;;5011437;28;20445;-74
2023/08/15 05:04:12;;;;;;;1999.90;999.90;;;20.20;99.90;;;;;;5010732;28;20066;-74
2023/08/15 05:06:38;;;;;;;1999.90;999.90;;;20.30;99.90;;;;;;5027950;28;20077;-74
2023/08/15 05:09:04;;;;;;;1999.90;999.90;;;20.20;99.90;;;;;;5030675;28;20038;-74
2023/08/15 05:11:30;;;;;;;1999.90;999.90;;;20.20;99.90;;;;;;5032587;28;20041;-74
2023/08/15 05:13:55;;;;;;;1999.90;999.90;;;20.20;99.90;;;;;;5033634;28;20038;-74
2023/08/15 05:16:21;;;;;;;1999.90;999.90;;;20.30;99.90;;;;;;5033469;28;20042;-75
2023/08/15 05:18:46;;;;;;;1999.90;999.90;;;20.20;99.90;;;;;;5023139;28;20427;-76
2023/08/15 05:21:12;;;;;;;1999.90;999.90;;;20.30;99.90;;;;;;5014254;28;20035;-75
2023/08/15 05:23:37;;;;;;;1999.90;999.90;;;20.30;99.90;;;;;;5014595;28;20034;-75
2023/08/15 05:26:03;;;;;;;1999.90;999.90;;;20.40;99.90;;;;;;5014099;28;20554;-75
2023/08/15 05:28:28;;;;;;;1999.90;999.90;;;20.50;99.90;;;;;;5014880;28;20030;-81
2023/08/15 05:30:54;;;;;;;1999.90;999.90;;;20.70;99.90;;;;;;5017623;28;20122;-75
2023/08/15 05:33:19;;;;;;;1999.90;999.90;;;20.70;99.90;;;;;;5014314;28;20038;-75
2023/08/15 05:35:45;;;;;;;1999.90;999.90;;;20.90;99.90;;;;;;5012337;28;20054;-75
2023/08/15 05:38:10;;;;;;;1999.90;999.90;;;21.00;99.90;;;;;;5012238;28;20053;-74
2023/08/15 05:40:37;;;;;;;1999.90;999.90;;;21.20;99.90;;;;;;5022482;28;20471;-75
2023/08/15 05:43:02;;;;;;;1999.90;999.90;;;21.20;99.90;;;;;;5033426;28;20083;-75
2023/08/15 05:45:29;;;;;;;1999.90;999.90;;;21.40;99.90;;;;;;5022811;28;20445;-74
2023/08/15 05:47:55;;;;;;;1999.90;999.90;;;21.40;99.90;;;;;;5015620;28;20464;-75
2023/08/15 05:50:20;;;;;;;1999.90;999.90;;;21.40;99.90;;;;;;5026552;28;20046;-76
2023/08/15 05:52:46;;;;;;;1999.90;999.90;;;21.40;99.90;;;;;;5033794;28;20026;-76
2023/08/15 05:55:12;;;;;;;1999.90;999.90;;;21.30;99.90;;;;;;5032064;28;20121;-76
2023/08/15 05:57:37;;;;;;;1999.90;999.90;;;21.20;99.90;;;;;;5027338;28;20042;-77
2023/08/15 06:00:05;;;;;;;1999.90;999.90;;;21.20;99.90;;;;;;5039370;28;20045;-76
2023/08/15 06:02:34;;;;;;;1999.90;999.90;;;21.10;99.90;;;;;;5013735;28;20438;-76
2023/08/15 06:05:01;;;;;;;1999.90;999.90;;;21.10;99.90;;;;;;5013282;28;20038;-75
2023/08/15 06:07:27;;;;;;;1999.90;999.90;;;21.10;99.90;;;;;;5014155;28;20034;-76
2023/08/15 06:09:52;;;;;;;1999.90;999.90;;;21.10;99.90;;;;;;5024562;28;20508;-75
2023/08/15 06:12:18;;;;;;;1999.90;999.90;;;21.10;99.90;;;;;;5033330;28;20069;-76
2023/08/15 06:14:43;;;;;;;1999.90;999.90;;;21.20;99.90;;;;;;5032983;28;20038;-77
2023/08/15 06:17:12;;;;;;;1999.90;999.90;;;21.20;99.90;;;;;;5033591;28;20078;-76
2023/08/15 06:19:37;;;;;;;1999.90;999.90;;;21.30;99.90;;;;;;5023859;28;20034;-76
2023/08/15 06:22:03;;;;;;;1999.90;999.90;;;21.40;99.90;;;;;;5012041;28;20030;-76
2023/08/15 06:24:29;;;;;;;1999.90;999.90;;;21.50;99.90;;;;;;5013402;28;20053;-77
2023/08/15 06:26:54;;;;;;;1999.90;999.90;;;21.60;99.90;;;;;;5013431;28;20042;-76
2023/08/15 06:29:20;;;;;;;1999.90;999.90;;;21.90;99.90;;;;;;5013140;28;20510;-76
2023/08/15 06:31:46;;;;;;;1999.90;999.90;;;22.10;99.90;;;;;;5024109;28;20121;-76
2023/08/15 06:34:11;;;;;;;1999.90;999.90;;;22.30;99.90;;;;;;5029594;28;20043;-76
2023/08/15 06:36:37;;;;;;;1999.90;999.90;;;22.50;99.90;;;;;;5018699;28;20042;-76
2023/08/15 06:39:03;;;;;;;1999.90;999.90;;;22.70;99.90;;;;;;5016060;28;20491;-76
2023/08/15 06:41:29;;;;;;;1999.90;999.90;;;22.90;99.90;;;;;;5032870;28;20030;-76
2023/08/15 06:43:55;;;;;;;1999.90;999.90;;;23.20;99.90;;;;;;5032872;28;20112;-76
2023/08/15 06:46:21;;;;;;;1999.90;999.90;;;23.40;99.90;;;;;;5024800;28;20034;-76
2023/08/15 06:48:46;;;;;;;1999.90;999.90;;;23.70;99.90;;;;;;5023403;28;20511;-76
2023/08/15 06:51:12;;;;;;;1999.90;999.90;;;23.90;99.90;;;;;;5015770;28;20035;-76
2023/08/15 06:53:41;;;;;;;1999.90;999.90;;;24.10;99.90;;;;;;5012875;28;20448;-77
2023/08/15 06:56:07;;;;;;;1999.90;999.90;;;24.30;99.90;;;;;;5029153;28;20045;-76
2023/08/15 06:58:32;;;;;;;1999.90;999.90;;;24.40;99.90;;;;;;5032307;28;20053;-76
2023/08/15 07:00:58;;;;;;;1999.90;999.90;;;24.60;99.90;;;;;;5024616;28;20491;-76
2023/08/15 07:03:23;;;;;;;1999.90;999.90;;;24.60;99.90;;;;;;5017962;28;20403;-76
2023/08/15 07:05:49;;;;;;;1999.90;999.90;;;24.60;99.90;;;;;;5026742;28;20046;-75
2023/08/15 07:08:15;;;;;;;1999.90;999.90;;;24.60;99.90;;;;;;5032634;28;20030;-76
2023/08/15 07:10:41;;;;;;;1999.90;999.90;;;24.80;99.90;;;;;;5027628;28;20128;-77
2023/08/15 07:13:06;;;;;;;1999.90;999.90;;;25.10;99.90;;;;;;5012772;28;20045;-77
2023/08/15 07:15:32;;;;;;;1999.90;999.90;;;25.30;99.90;;;;;;5012419;28;20046;-78
2023/08/15 07:17:58;;;;;;;1999.90;999.90;;;25.40;99.90;;;;;;5024511;28;20480;-76
2023/08/15 07:20:24;;;;;;;1999.90;999.90;;;25.70;99.90;;;;;;5025851;28;20046;-77
2023/08/15 07:22:50;;;;;;;1999.90;999.90;;;25.60;99.90;;;;;;5031320;28;20064;-77
2023/08/15 07:25:15;;;;;;;1999.90;999.90;;;25.80;99.90;;;;;;5024152;28;20062;-77
2023/08/15 07:27:41;;;;;;;1999.90;999.90;;;26.00;99.90;;;;;;5032634;28;20029;-77
2023/08/15 07:30:07;;;;;;;1999.90;999.90;;;26.10;99.90;;;;;;5015857;28;20042;-82
2023/08/15 07:32:36;;;;;;;1999.90;999.90;;;26.30;99.90;;;;;;5012861;28;20160;-77
2023/08/15 07:35:03;;;;;;;1999.90;999.90;;;26.40;99.90;;;;;;5011907;28;20048;-77
2023/08/15 07:37:30;;;;;;;1999.90;999.90;;;26.70;99.90;;;;;;5012681;28;20034;-77
2023/08/15 07:40:07;;;;;;;1999.90;999.90;;;27.10;99.90;;;;;;5026267;28;20038;-75
2023/08/15 07:42:34;;;;;;;1999.90;999.90;;;27.30;99.90;;;;;;5016781;28;20113;-77
2023/08/15 07:44:59;;;;;;;1999.90;999.90;;;27.30;99.90;;;;;;5025885;28;20049;-76
2023/08/15 07:47:25;;;;;;;1999.90;999.90;;;27.10;99.90;;;;;;5023688;28;20577;-77
2023/08/15 07:50:12;;;;;;;1999.90;999.90;;;27.10;99.90;;;;;;5022829;28;20068;-79
2023/08/15 07:52:37;;;;;;;1999.90;999.90;;;26.90;99.90;;;;;;5013342;28;20089;-75
2023/08/15 07:55:03;;;;;;;1999.90;999.90;;;26.80;99.90;;;;;;5024789;28;20050;-76
2023/08/15 07:57:29;;;;;;;1999.90;999.90;;;27.00;99.90;;;;;;5031813;28;20558;-76
2023/08/15 07:59:54;;;;;;;1999.90;999.90;;;27.20;99.90;;;;;;5013578;28;20044;-76
2023/08/15 08:02:20;;;;;;;1999.90;999.90;;;27.60;99.90;;;;;;5027221;28;20479;-76
2023/08/15 08:04:45;;;;;;;1999.90;999.90;;;27.60;99.90;;;;;;5027734;28;20033;-76
2023/08/15 08:07:11;;;;;;;1999.90;999.90;;;27.70;99.90;;;;;;5025476;28;20476;-76
2023/08/15 08:09:37;;;;;;;1999.90;999.90;;;27.70;99.90;;;;;;5014590;28;20223;-76
2023/08/15 08:12:03;;;;;;;1999.90;999.90;;;27.80;99.90;;;;;;5029112;28;20037;-76
2023/08/15 08:14:28;;;;;;;1999.90;999.90;;;27.90;99.90;;;;;;5016329;28;20039;-77
2023/08/15 08:16:54;;;;;;;1999.90;999.90;;;27.90;99.90;;;;;;5014483;28;20084;-80
2023/08/15 08:19:19;;;;;;;1999.90;999.90;;;28.10;99.90;;;;;;5020902;28;20069;-76
2023/08/15 08:21:45;;;;;;;1999.90;999.90;;;28.20;99.90;;;;;;5030256;28;20034;-76
2023/08/15 08:24:10;;;;;;;1999.90;999.90;;;28.20;99.90;;;;;;5029721;28;20045;-76
2023/08/15 08:26:36;;;;;;;1999.90;999.90;;;28.40;99.90;;;;;;5027323;28;20038;-77
2023/08/15 08:29:02;;;;;;;1999.90;999.90;;;28.30;99.90;;;;;;5018221;28;20084;-76
2023/08/15 08:31:28;;;;;;;1999.90;999.90;;;28.20;99.90;;;;;;5023898;28;20090;-77
2023/08/15 08:33:53;;;;;;;1999.90;999.90;;;28.20;99.90;;;;;;5012096;28;20125;-82
2023/08/15 08:36:19;;;;;;;1999.90;999.90;;;28.50;99.90;;;;;;5011645;28;20037;-73
2023/08/15 08:38:44;;;;;;;1999.90;999.90;;;28.50;99.90;;;;;;5025394;28;20123;-76
2023/08/15 08:41:11;;;;;;;1999.90;999.90;;;28.40;99.90;;;;;;5009268;28;20034;-79
2023/08/15 08:43:37;;;;;;;1999.90;999.90;;;28.50;99.90;;;;;;5009021;28;20056;-77
2023/08/15 08:46:04;;;;;;;1999.90;999.90;;;28.30;99.90;;;;;;5022804;28;20042;-78
2023/08/15 08:48:31;;;;;;;1999.90;999.90;;;28.40;99.90;;;;;;5032896;28;20144;-77
2023/08/15 08:51:08;;;;;;;1999.90;999.90;;;28.10;99.90;;;;;;5027050;28;20038;-77
2023/08/15 08:53:34;;;;;;;1999.90;999.90;;;28.10;99.90;;;;;;5013541;28;20061;-78
2023/08/15 08:56:01;;;;;;;1999.90;999.90;;;28.00;99.90;;;;;;5012179;28;20112;-72
2023/08/15 08:58:30;;;;;;;1999.90;999.90;;;27.80;99.90;;;;;;5012936;28;20443;-75
2023/08/15 09:00:58;;;;;;;1999.90;999.90;;;27.70;99.90;;;;;;5015821;28;20113;-73
2023/08/15 09:03:24;;;;;;;1999.90;999.90;;;27.80;99.90;;;;;;5013282;28;20038;-76
2023/08/15 09:05:51;;;;;;;1999.90;999.90;;;27.80;99.90;;;;;;5023444;28;20038;-73
2023/08/15 09:08:16;;;;;;;1999.90;999.90;;;27.90;99.90;;;;;;5024885;28;20038;-72
2023/08/15 09:10:42;;;;;;;1999.90;999.90;;;28.00;99.90;;;;;;4998167;22;1081313;-72
2023/08/15 09:13:07;;;;;;;1999.90;999.90;;;28.10;99.90;;;;;;4992651;28;20047;-72
2023/08/15 09:15:33;;;;;;;1999.90;999.90;;;27.90;99.90;;;;;;4993629;28;20047;-72
2023/08/15 09:18:00;;;;;;;1999.90;999.90;;;28.00;99.90;;;;;;4994635;28;20035;-72
2023/08/15 09:20:26;;;;;;;1999.90;999.90;;;28.30;99.90;;;;;;4993998;28;20039;-72
2023/08/15 09:22:56;;;;;;;1999.90;999.90;;;28.60;99.90;;;;;;4992748;28;20046;-73
2023/08/15 09:25:25;;;;;;;1999.90;999.90;;;28.80;99.90;;;;;;4994394;28;20416;-73
2023/08/15 09:27:51;;;;;;;1999.90;999.90;;;29.00;99.90;;;;;;4994313;28;20089;-72
2023/08/15 09:30:17;;;;;;;1999.90;999.90;;;28.90;99.90;;;;;;4994402;28;20050;-72
2023/08/15 09:32:43;;;;;;;1999.90;999.90;;;28.60;99.90;;;;;;4994635;28;20062;-73
2023/08/15 09:35:12;;;;;;;1999.90;999.90;;;28.50;99.90;;;;;;4992405;28;20039;-73
2023/08/15 09:37:45;;;;;;;1999.90;999.90;;;28.40;99.90;;;;;;4994177;28;20492;-73
2023/08/15 09:40:22;;;;;;;1999.90;999.90;;;28.30;99.90;;;;;;4993713;28;20039;-72
2023/08/15 09:42:48;;;;;;;1999.90;999.90;;;28.10;99.90;;;;;;4992863;28;20097;-72
2023/08/15 09:45:15;;;;;;;1999.90;999.90;;;28.00;99.90;;;;;;4993281;28;20042;-72
2023/08/15 09:47:41;;;;;;;1999.90;999.90;;;27.90;99.90;;;;;;4994037;28;20035;-72
2023/08/15 09:50:09;;;;;;;1999.90;999.90;;;27.90;99.90;;;;;;4993960;28;20038;-73
2023/08/15 09:52:40;;;;;;;1999.90;999.90;;;27.90;99.90;;;;;;4994062;28;20034;-72
2023/08/15 09:55:08;;;;;;;1999.90;999.90;;;28.00;99.90;;;;;;4993685;28;20050;-72
2023/08/15 09:57:34;;;;;;;1999.90;999.90;;;28.40;99.90;;;;;;4993496;28;20031;-72
2023/08/15 10:00:00;;;;;;;1999.90;999.90;;;28.90;99.90;;;;;;4994146;28;20365;-72
2023/08/15 10:02:27;;;;;;;1999.90;999.90;;;29.00;99.90;;;;;;4993898;28;20042;-72
2023/08/15 10:05:02;;;;;;;1999.90;999.90;;;29.10;99.90;;;;;;4993641;28;20074;-73
2023/08/15 10:07:31;;;;;;;1999.90;999.90;;;29.50;99.90;;;;;;4994179;28;20039;-72
2023/08/15 10:10:03;;;;;;;1999.90;999.90;;;29.80;99.90;;;;;;4993116;28;20042;-73
2023/08/15 10:12:30;;;;;;;1999.90;999.90;;;30.30;99.90;;;;;;4993856;28;20045;-72
2023/08/15 10:14:58;;;;;;;1999.90;999.90;;;30.60;99.90;;;;;;4993905;28;20035;-72
2023/08/15 10:17:28;;;;;;;1999.90;999.90;;;30.70;99.90;;;;;;4993567;28;20062;-72
2023/08/15 10:19:59;;;;;;;1999.90;999.90;;;30.70;99.90;;;;;;4993825;28;20508;-73
2023/08/15 10:22:25;;;;;;;1999.90;999.90;;;30.20;99.90;;;;;;4992219;28;20164;-72
2023/08/15 10:24:50;;;;;;;1999.90;999.90;;;29.80;99.90;;;;;;5055209;28;20123;-72
2023/08/15 10:27:19;;;;;;;1999.90;999.90;;;29.70;99.90;;;;;;5076513;28;20043;-73
2023/08/15 10:29:56;;;;;;;1999.90;999.90;;;29.40;99.90;;;;;;5076189;28;20029;-73
2023/08/15 10:32:26;;;;;;;1999.90;999.90;;;29.20;99.90;;;;;;5075051;28;20430;-73
2023/08/15 10:34:54;;;;;;;1999.90;999.90;;;28.90;99.90;;;;;;5074492;28;20123;-72
2023/08/15 10:37:38;;;;;;;1999.90;999.90;;;28.60;99.90;;;;;;5076261;28;20526;-72
2023/08/15 10:40:13;;;;;;;1999.90;999.90;;;28.60;99.90;;;;;;5074637;28;20851;-72
2023/08/15 10:42:57;;;;;;;1999.90;999.90;;;28.90;99.90;;;;;;5076478;28;20048;-72
2023/08/15 10:45:23;;;;;;;1999.90;999.90;;;29.30;99.90;;;;;;5076133;28;20039;-72
2023/08/15 10:47:49;;;;;;;1999.90;999.90;;;29.50;99.90;;;;;;5075798;28;20033;-72
2023/08/15 10:50:16;;;;;;;1999.90;999.90;;;29.60;99.90;;;;;;5076184;28;20427;-72
2023/08/15 10:52:41;;;;;;;1999.90;999.90;;;29.50;99.90;;;;;;5076172;28;20112;-72
2023/08/15 10:55:08;;;;;;;1999.90;999.90;;;29.30;99.90;;;;;;5025482;28;20043;-72
2023/08/15 10:57:34;;;;;;;1999.90;999.90;;;29.50;99.90;;;;;;4993458;28;20034;-73
2023/08/15 11:00:19;;;;;;;1999.90;999.90;;;29.50;99.90;;;;;;4992535;28;20038;-72
2023/08/15 11:02:45;;;;;;;1999.90;999.90;;;29.80;99.90;;;;;;4993576;28;20034;-72
2023/08/15 11:05:11;;;;;;;1999.90;999.90;;;30.20;99.90;;;;;;4993200;28;20472;-73
2023/08/15 11:07:36;;;;;;;1999.90;999.90;;;30.20;99.90;;;;;;4991800;28;20361;-73
2023/08/15 11:10:02;;;;;;;1999.90;999.90;;;30.40;99.90;;;;;;4992057;28;20125;-72
2023/08/15 11:12:27;;;;;;;1999.90;999.90;;;30.60;99.90;;;;;;4992771;28;20078;-72
2023/08/15 11:14:53;;;;;;;1999.90;999.90;;;30.20;99.90;;;;;;4991308;28;20047;-73
2023/08/15 11:17:18;;;;;;;1999.90;999.90;;;30.40;99.90;;;;;;4991324;28;20049;-73
2023/08/15 11:19:45;;;;;;;1999.90;999.90;;;30.40;99.90;;;;;;4992724;28;20569;-73
2023/08/15 11:22:11;;;;;;;1999.90;999.90;;;30.40;99.90;;;;;;4992171;28;20042;-73
2023/08/15 11:24:37;;;;;;;1999.90;999.90;;;30.60;99.90;;;;;;4991222;28;20511;-74
2023/08/15 11:27:03;;;;;;;1999.90;999.90;;;31.00;99.90;;;;;;4991498;28;20391;-72
2023/08/15 11:29:29;;;;;;;1999.90;999.90;;;31.40;99.90;;;;;;4993050;28;20039;-73
2023/08/15 11:31:58;;;;;;;1999.90;999.90;;;31.70;99.90;;;;;;4993034;28;20027;-70
2023/08/15 11:34:24;;;;;;;1999.90;999.90;;;31.70;99.90;;;;;;4992050;28;20100;-72
2023/08/15 11:36:50;;;;;;;1999.90;999.90;;;32.10;99.90;;;;;;4992074;28;20030;-75
2023/08/15 11:39:16;;;;;;;1999.90;999.90;;;31.90;99.90;;;;;;4990695;28;20035;-72
2023/08/15 11:41:43;;;;;;;1999.90;999.90;;;32.00;99.90;;;;;;4994177;28;20047;-71
2023/08/15 11:44:08;;;;;;;1999.90;999.90;;;31.80;99.90;;;;;;4992244;28;20062;-72
2023/08/15 11:46:37;;;;;;;1999.90;999.90;;;32.00;99.90;;;;;;4989276;28;20058;-72
2023/08/15 11:49:03;;;;;;;1999.90;999.90;;;32.10;99.90;;;;;;4992057;28;20035;-70
2023/08/15 11:51:29;;;;;;;1999.90;999.90;;;32.20;99.90;;;;;;4990998;28;20034;-71
2023/08/15 11:53:56;;;;;;;1999.90;999.90;;;32.20;99.90;;;;;;4992285;28;20403;-71
2023/08/15 11:56:22;;;;;;;1999.90;999.90;;;32.20;99.90;;;;;;4992228;28;20027;-74